Time;durP1;ratioP1;P1;durP2;ratioP2;P2;SDS_P1;SDS_P2;PMS_P1;PMS_P2;Temp;Humidity;BMP_temperature;BMP_pressure;BME280_temperature;BME280_humidity;BME280_pressure;Samples;Min_cycle;Max_cycle;Signal;HPM_P1;HPM_P2
2022/09/07 00:00:20;;;;;;;6.03;2.90;;;;;;;14.35;69.87;100617.06;5075429;28;20052;-73
2022/09/07 00:02:45;;;;;;;4.45;3.05;;;;;;;14.30;71.41;100629.31;5058653;28;20028;-73
2022/09/07 00:05:10;;;;;;;5.28;2.85;;;;;;;14.21;71.68;100629.50;5075187;28;20027;-74
2022/09/07 00:07:36;;;;;;;6.20;2.92;;;;;;;14.17;71.91;100625.28;5075208;28;20036;-73
2022/09/07 00:10:01;;;;;;;4.22;2.47;;;;;;;14.12;72.38;100623.94;5076451;28;20031;-72
2022/09/07 00:12:27;;;;;;;10.25;3.38;;;;;;;14.09;72.57;100624.94;5074822;28;20085;-73
2022/09/07 00:14:52;;;;;;;9.60;3.05;;;;;;;14.13;72.97;100622.66;5074869;28;20059;-71
2022/09/07 00:17:17;;;;;;;6.63;3.33;;;;;;;14.16;72.58;100624.50;5076453;28;20028;-71
2022/09/07 00:19:43;;;;;;;8.68;3.30;;;;;;;14.18;72.26;100621.88;5074958;28;20029;-72
2022/09/07 00:22:08;;;;;;;9.98;2.75;;;;;;;14.20;72.65;100610.69;5074943;28;20377;-74
2022/09/07 00:24:34;;;;;;;6.28;2.50;;;;;;;14.18;71.94;100606.75;5074976;28;20025;-72
2022/09/07 00:26:59;;;;;;;5.40;2.92;;;;;;;14.18;71.43;100609.63;5074867;28;20397;-72
2022/09/07 00:29:24;;;;;;;5.05;2.70;;;;;;;14.13;71.73;100599.66;5075096;28;20315;-72
2022/09/07 00:31:50;;;;;;;5.82;2.63;;;;;;;14.11;72.22;100604.34;5076033;28;20385;-71
2022/09/07 00:34:15;;;;;;;5.38;2.60;;;;;;;14.10;71.95;100597.78;5074804;28;20312;-73
2022/09/07 00:36:41;;;;;;;3.30;1.98;;;;;;;14.07;71.85;100595.94;5074740;28;20021;-71
2022/09/07 00:39:06;;;;;;;4.80;2.30;;;;;;;14.05;71.97;100592.78;5057946;28;20473;-72
2022/09/07 00:41:31;;;;;;;4.43;2.40;;;;;;;13.99;72.88;100587.00;5074494;28;20111;-72
2022/09/07 00:44:18;;;;;;;6.30;2.60;;;;;;;13.94;73.37;100586.94;5074546;28;20108;-73
2022/09/07 00:46:45;;;;;;;4.72;2.47;;;;;;;13.88;73.89;100589.00;5075713;28;20115;-71
2022/09/07 00:49:15;;;;;;;3.40;2.33;;;;;;;13.84;73.42;100591.28;5075929;28;20100;-72
2022/09/07 00:51:50;;;;;;;3.38;2.30;;;;;;;13.74;73.35;100590.69;5074484;28;20462;-72
2022/09/07 00:54:19;;;;;;;4.78;2.35;;;;;;;13.67;73.64;100610.47;5057685;28;20056;-72
2022/09/07 00:56:46;;;;;;;4.32;2.38;;;;;;;13.59;73.92;100607.25;5076025;28;20119;-72
2022/09/07 00:59:13;;;;;;;8.93;3.05;;;;;;;13.57;74.14;100603.31;5073499;28;20032;-72
2022/09/07 01:01:39;;;;;;;4.93;2.00;;;;;;;13.54;74.11;100603.03;5057529;28;20032;-72
2022/09/07 01:04:04;;;;;;;4.68;2.17;;;;;;;13.56;74.56;100602.53;5073513;28;20048;-73
2022/09/07 01:06:33;;;;;;;3.25;2.53;;;;;;;13.54;74.47;100588.66;5055169;28;20117;-72
2022/09/07 01:09:03;;;;;;;5.05;2.20;;;;;;;13.61;73.86;100601.00;5073496;28;20025;-73
2022/09/07 01:11:29;;;;;;;5.57;2.33;;;;;;;13.66;73.88;100588.78;5071949;28;20036;-72
2022/09/07 01:13:56;;;;;;;3.17;1.90;;;;;;;13.73;73.78;100589.13;5054845;28;20075;-72
2022/09/07 01:16:35;;;;;;;4.70;2.22;;;;;;;13.76;73.87;100584.44;5072568;28;20028;-72
2022/09/07 01:19:26;;;;;;;4.00;1.58;;;;;;;13.74;73.58;100584.19;5073141;28;20039;-72
2022/09/07 01:22:13;;;;;;;5.22;2.55;;;;;;;13.72;72.92;100578.16;5075386;28;20024;-72
2022/09/07 01:25:03;;;;;;;5.65;2.70;;;;;;;13.72;72.83;100583.88;5075337;28;20028;-72
2022/09/07 01:27:38;;;;;;;4.13;2.33;;;;;;;13.69;72.64;100587.78;5072298;28;20550;-72
2022/09/07 01:30:15;;;;;;;5.13;2.42;;;;;;;13.63;73.26;100584.06;5071760;28;20539;-74
2022/09/07 01:33:02;;;;;;;4.25;2.38;;;;;;;13.58;73.31;100582.72;5071774;28;20052;-73
2022/09/07 01:35:31;;;;;;;3.20;2.05;;;;;;;13.51;73.83;100591.78;5073957;28;20036;-72
2022/09/07 01:38:12;;;;;;;3.08;2.25;;;;;;;13.53;73.42;100589.19;5073107;28;20048;-72
2022/09/07 01:40:46;;;;;;;2.80;1.98;;;;;;;13.48;73.96;100573.47;5074354;28;20385;-73
2022/09/07 01:43:17;;;;;;;4.10;2.10;;;;;;;13.49;74.21;100577.88;5073163;28;20027;-73
2022/09/07 01:45:43;;;;;;;3.50;2.10;;;;;;;13.49;74.68;100580.75;5073601;28;20367;-73
2022/09/07 01:48:13;;;;;;;7.32;2.20;;;;;;;13.49;74.43;100580.75;5056607;28;20433;-72
2022/09/07 01:50:44;;;;;;;3.58;2.10;;;;;;;13.37;75.67;100569.69;5073222;28;20087;-72
2022/09/07 01:53:14;;;;;;;;;;;;;;;13.34;76.88;100564.97;5073857;28;20032;-74
2022/09/07 01:55:49;;;;;;;5.82;2.20;;;;;;;13.36;77.37;100562.34;5056820;28;19947;-73
2022/09/07 01:58:27;;;;;;;6.10;2.83;;;;;;;13.35;77.46;100563.63;5056405;28;20029;-72
2022/09/07 02:01:10;;;;;;;4.68;2.38;;;;;;;13.30;78.66;100561.50;5074199;28;20029;-72
2022/09/07 02:03:38;;;;;;;5.15;2.50;;;;;;;13.33;78.49;100569.13;5073358;28;20119;-73
2022/09/07 02:06:17;;;;;;;8.00;3.10;;;;;;;13.28;79.12;100553.41;5074480;28;20029;-73
2022/09/07 02:08:50;;;;;;;6.75;2.70;;;;;;;13.21;79.50;100562.47;5073172;28;20036;-72
2022/09/07 02:11:19;;;;;;;4.85;2.33;;;;;;;13.29;79.51;100559.94;5072652;28;20036;-72
2022/09/07 02:13:58;;;;;;;12.07;2.15;;;;;;;13.27;79.76;100569.06;5072518;28;20052;-72
2022/09/07 02:16:28;;;;;;;4.93;2.20;;;;;;;13.30;79.47;100565.16;5073093;28;20028;-73
2022/09/07 02:19:03;;;;;;;3.97;2.30;;;;;;;13.28;79.42;100562.03;5072695;28;20029;-71
2022/09/07 02:21:35;;;;;;;6.18;2.65;;;;;;;13.20;79.80;100560.09;5072662;28;20039;-72
2022/09/07 02:24:05;;;;;;;5.22;2.45;;;;;;;13.10;79.63;100560.25;5072650;28;20116;-73
2022/09/07 02:26:31;;;;;;;5.60;2.72;;;;;;;13.09;80.24;100570.19;5056051;28;20043;-72
2022/09/07 02:28:57;;;;;;;6.22;2.72;;;;;;;13.08;79.94;100576.41;5072741;28;20036;-72
2022/09/07 02:31:22;;;;;;;5.65;3.03;;;;;;;13.08;80.23;100576.41;5072456;28;20429;-72
2022/09/07 02:33:48;;;;;;;5.85;2.28;;;;;;;13.07;80.68;100564.13;5072491;28;20040;-71
2022/09/07 02:36:15;;;;;;;6.28;3.03;;;;;;;13.06;80.93;100564.63;5072712;28;20054;-72
2022/09/07 02:38:40;;;;;;;5.97;2.75;;;;;;;13.11;80.29;100561.84;5072747;28;20174;-72
2022/09/07 02:41:30;;;;;;;6.10;2.45;;;;;;;13.16;80.60;100557.44;5072609;28;20070;-72
2022/09/07 02:43:59;;;;;;;4.72;2.80;;;;;;;13.19;80.17;100556.47;5072371;28;20027;-73
2022/09/07 02:46:39;;;;;;;4.15;2.42;;;;;;;13.16;80.40;100557.44;5072263;28;20051;-71
2022/09/07 02:49:14;;;;;;;6.25;2.25;;;;;;;13.09;80.84;100547.22;5072210;28;20032;-72
2022/09/07 02:52:20;;;;;;;4.50;2.13;;;;;;;13.08;81.05;100553.44;5073800;28;20028;-72
2022/09/07 02:55:06;;;;;;;5.80;2.20;;;;;;;13.02;81.15;100555.47;5073513;28;20040;-73
2022/09/07 02:57:34;;;;;;;3.20;2.03;;;;;;;12.88;82.29;100556.34;5073586;28;20063;-72
2022/09/07 03:00:12;;;;;;;3.85;2.47;;;;;;;12.94;81.99;100555.13;5072021;28;20494;-72
2022/09/07 03:02:43;;;;;;;5.35;2.38;;;;;;;12.84;82.30;100553.69;5072128;28;20531;-72
2022/09/07 03:05:17;;;;;;;2.70;1.95;;;;;;;12.83;82.21;100552.13;5055569;28;20028;-72
2022/09/07 03:07:52;;;;;;;7.80;2.85;;;;;;;12.73;82.22;100550.69;5073427;28;20521;-72
2022/09/07 03:10:18;;;;;;;6.85;2.55;;;;;;;12.70;82.16;100551.69;5072266;28;20028;-74
2022/09/07 03:12:46;;;;;;;8.80;2.50;;;;;;;12.64;82.58;100554.50;5072240;28;20027;-72
2022/09/07 03:15:20;;;;;;;7.05;2.55;;;;;;;12.57;82.97;100559.84;5072123;28;20052;-72
2022/09/07 03:17:45;;;;;;;4.43;2.17;;;;;;;12.47;83.10;100553.47;5073139;28;20056;-73
2022/09/07 03:20:11;;;;;;;7.45;2.20;;;;;;;12.48;83.23;100560.78;5072074;28;20032;-72
2022/09/07 03:22:37;;;;;;;3.30;2.42;;;;;;;12.43;83.36;100564.34;5056163;28;20388;-73
2022/09/07 03:25:04;;;;;;;2.75;2.10;;;;;;;12.41;83.07;100560.41;5059460;28;20545;-72
2022/09/07 03:27:32;;;;;;;4.43;2.30;;;;;;;12.32;82.92;100557.63;5077819;28;20020;-72
2022/09/07 03:29:58;;;;;;;5.18;2.20;;;;;;;12.27;82.78;100562.78;5077501;28;20023;-72
2022/09/07 03:32:28;;;;;;;6.80;2.72;;;;;;;12.22;83.44;100557.78;5076975;28;20032;-73
2022/09/07 03:34:53;;;;;;;9.63;3.03;;;;;;;12.21;83.79;100555.38;5077155;28;20052;-71
2022/09/07 03:37:19;;;;;;;3.65;2.08;;;;;;;12.17;84.35;100551.94;5076029;28;20059;-72
2022/09/07 03:39:44;;;;;;;13.10;2.30;;;;;;;12.15;84.76;100543.88;5077143;28;20351;-73
2022/09/07 03:42:09;;;;;;;6.32;2.63;;;;;;;12.14;85.03;100547.22;5075790;28;20032;-72
2022/09/07 03:44:35;;;;;;;3.42;2.35;;;;;;;12.17;84.55;100549.88;5077000;28;20025;-72
2022/09/07 03:47:00;;;;;;;6.45;2.58;;;;;;;12.20;84.13;100554.63;5075589;28;20440;-72
2022/09/07 03:49:25;;;;;;;4.30;2.10;;;;;;;12.18;83.88;100548.59;5058904;28;20032;-73
2022/09/07 03:51:51;;;;;;;5.70;2.30;;;;;;;12.21;84.35;100547.59;5076799;28;20093;-73
2022/09/07 03:54:16;;;;;;;6.28;2.35;;;;;;;12.18;84.43;100540.00;5076959;28;20028;-72
2022/09/07 03:56:42;;;;;;;7.07;2.05;;;;;;;12.24;84.53;100543.75;5076791;28;20016;-72
2022/09/07 03:59:07;;;;;;;10.25;2.40;;;;;;;12.27;84.41;100545.59;5075560;28;20414;-73
2022/09/07 04:01:32;;;;;;;9.52;2.80;;;;;;;12.26;84.01;100532.56;5076693;28;20028;-73
2022/09/07 04:04:01;;;;;;;9.63;2.60;;;;;;;12.23;84.55;100541.38;5058539;28;20013;-72
2022/09/07 04:06:26;;;;;;;8.77;2.45;;;;;;;12.21;84.72;100539.00;5075264;28;20024;-71
2022/09/07 04:08:52;;;;;;;5.93;2.50;;;;;;;12.25;84.51;100521.63;5076630;28;20073;-72
2022/09/07 04:11:18;;;;;;;4.43;2.13;;;;;;;12.27;83.75;100531.28;5076484;28;20346;-74
2022/09/07 04:13:44;;;;;;;7.57;3.05;;;;;;;12.36;82.86;100529.56;5058381;28;20041;-72
2022/09/07 04:16:10;;;;;;;6.07;1.92;;;;;;;12.24;82.83;100532.28;5074728;28;20457;-72
2022/09/07 04:18:36;;;;;;;4.95;1.85;;;;;;;12.22;82.83;100528.31;5076577;28;20111;-73
2022/09/07 04:21:02;;;;;;;6.53;2.45;;;;;;;12.24;82.50;100531.50;5075199;28;20114;-73
2022/09/07 04:23:27;;;;;;;5.85;2.10;;;;;;;12.22;82.11;100531.97;5074897;28;20108;-74
2022/09/07 04:25:52;;;;;;;3.95;2.50;;;;;;;12.06;82.35;100528.88;5062170;28;20039;-72
2022/09/07 04:28:19;;;;;;;6.35;2.58;;;;;;;12.11;83.10;100528.19;5038238;28;20084;-73
2022/09/07 04:30:45;;;;;;;4.28;2.65;;;;;;;12.11;82.77;100528.94;5060084;28;20374;-75
2022/09/07 04:33:10;;;;;;;9.60;2.63;;;;;;;12.09;82.49;100525.81;5057992;28;20469;-72
2022/09/07 04:35:36;;;;;;;4.78;2.40;;;;;;;12.06;82.76;100521.06;5073663;28;20107;-73
2022/09/07 04:38:02;;;;;;;5.22;2.53;;;;;;;12.00;82.69;100533.72;5076065;28;20095;-73
2022/09/07 04:40:28;;;;;;;7.88;3.83;;;;;;;12.01;82.98;100527.50;5075515;28;20028;-73
2022/09/07 04:42:53;;;;;;;7.45;2.25;;;;;;;12.02;83.00;100523.34;5057845;28;20020;-73
2022/09/07 04:45:19;;;;;;;5.35;1.98;;;;;;;12.02;83.34;100526.22;5075745;28;20519;-72
2022/09/07 04:47:47;;;;;;;6.88;2.90;;;;;;;12.07;82.29;100530.44;5075520;28;20020;-74
2022/09/07 04:50:15;;;;;;;5.47;2.25;;;;;;;12.06;82.19;100528.88;5074612;28;20024;-77
2022/09/07 04:52:42;;;;;;;4.05;2.22;;;;;;;11.95;82.01;100514.38;5073915;28;20115;-78
2022/09/07 04:55:09;;;;;;;5.90;2.38;;;;;;;11.99;81.98;100515.75;5053876;28;20021;-75
2022/09/07 04:57:56;;;;;;;2.35;1.80;;;;;;;12.04;81.69;100525.72;5037277;28;20041;-76
2022/09/07 05:00:22;;;;;;;4.60;2.10;;;;;;;12.05;81.34;100530.97;5055139;28;20049;-76
2022/09/07 05:02:48;;;;;;;3.80;2.13;;;;;;;12.09;81.33;100522.94;5053812;28;20541;-74
2022/09/07 05:05:15;;;;;;;4.22;2.15;;;;;;;12.13;80.87;100528.44;5054078;28;20016;-75
2022/09/07 05:07:42;;;;;;;4.10;1.98;;;;;;;12.11;80.78;100520.34;5053872;28;20025;-78
2022/09/07 05:10:07;;;;;;;5.78;2.00;;;;;;;12.20;80.84;100519.47;5053817;28;20018;-76
2022/09/07 05:12:41;;;;;;;4.03;2.05;;;;;;;12.24;80.75;100531.50;5052001;28;20045;-75
2022/09/07 05:15:08;;;;;;;5.80;2.13;;;;;;;12.26;80.22;100528.91;5051886;28;20049;-77
2022/09/07 05:17:33;;;;;;;4.32;2.30;;;;;;;12.30;79.76;100528.72;5074423;28;20464;-76
2022/09/07 05:19:59;;;;;;;7.30;2.60;;;;;;;12.33;79.31;100514.16;5073598;28;20058;-76
2022/09/07 05:22:34;;;;;;;3.67;1.92;;;;;;;12.48;78.58;100534.97;5072742;28;20041;-78
2022/09/07 05:25:02;;;;;;;7.10;2.40;;;;;;;12.50;77.95;100525.88;5074676;28;20027;-77
2022/09/07 05:27:27;;;;;;;4.68;2.17;;;;;;;12.57;77.63;100523.38;5073778;28;20032;-75
2022/09/07 05:29:53;;;;;;;3.88;2.10;;;;;;;12.67;76.99;100527.66;5070908;28;20036;-77
2022/09/07 05:32:18;;;;;;;9.82;2.67;;;;;;;12.79;76.29;100536.41;5072420;28;20028;-76
2022/09/07 05:34:46;;;;;;;5.18;2.47;;;;;;;12.98;75.27;100524.13;5055732;28;20051;-76
2022/09/07 05:37:11;;;;;;;9.80;2.38;;;;;;;12.94;73.78;100512.09;5072010;28;20017;-76
2022/09/07 05:39:36;;;;;;;8.18;1.85;;;;;;;13.07;73.35;100526.84;5071513;28;20036;-77
2022/09/07 05:42:02;;;;;;;10.63;2.53;;;;;;;13.07;72.98;100531.78;5073619;28;20025;-76
2022/09/07 05:44:29;;;;;;;6.10;2.65;;;;;;;13.01;72.09;100540.31;5073611;28;20020;-75
2022/09/07 05:46:54;;;;;;;12.27;3.08;;;;;;;12.92;71.89;100536.81;5073375;28;20020;-76
2022/09/07 05:49:20;;;;;;;10.45;2.78;;;;;;;13.01;71.47;100534.59;5073299;28;20020;-75
2022/09/07 05:51:45;;;;;;;10.82;2.70;;;;;;;13.17;70.87;100538.16;5072616;28;20028;-76
2022/09/07 05:54:11;;;;;;;9.45;2.50;;;;;;;13.26;70.83;100540.84;5072537;28;20625;-76
2022/09/07 05:56:36;;;;;;;7.80;2.60;;;;;;;13.37;70.24;100529.50;5072377;28;20028;-77
2022/09/07 05:59:02;;;;;;;5.68;2.58;;;;;;;13.49;69.87;100531.19;5070822;28;20081;-77
2022/09/07 06:01:28;;;;;;;7.72;2.60;;;;;;;13.65;69.32;100539.19;5070588;28;20033;-78
2022/09/07 06:03:53;;;;;;;5.63;2.50;;;;;;;13.68;68.88;100534.50;5071885;28;20055;-77
2022/09/07 06:06:19;;;;;;;5.50;2.65;;;;;;;13.69;67.36;100536.09;5053860;28;20106;-77
2022/09/07 06:08:52;;;;;;;4.05;2.22;;;;;;;13.73;68.17;100539.50;5054909;28;20028;-76
2022/09/07 06:11:20;;;;;;;3.72;2.15;;;;;;;13.83;66.97;100538.81;5056038;28;20025;-77
2022/09/07 06:13:46;;;;;;;15.38;2.75;;;;;;;13.96;67.54;100536.31;5077497;28;20089;-77
2022/09/07 06:16:12;;;;;;;10.48;2.58;;;;;;;14.21;67.55;100540.41;5076057;28;20024;-76
2022/09/07 06:18:40;;;;;;;5.38;1.77;;;;;;;15.35;64.94;100555.56;5059381;28;20020;-76
2022/09/07 06:21:23;;;;;;;4.00;1.90;;;;;;;18.14;52.49;100564.91;5059185;28;20376;-77
2022/09/07 06:23:50;;;;;;;11.82;2.80;;;;;;;20.86;44.13;100583.44;5075555;28;20031;-76
2022/09/07 06:26:16;;;;;;;11.50;2.30;;;;;;;22.86;38.68;100587.38;5059746;28;20024;-74
2022/09/07 06:28:43;;;;;;;6.35;2.10;;;;;;;24.68;35.06;100580.56;5076027;28;20069;-75
2022/09/07 06:31:19;;;;;;;8.20;2.50;;;;;;;26.33;31.21;100590.03;5075606;28;20115;-72
2022/09/07 06:33:46;;;;;;;6.68;2.25;;;;;;;27.46;29.56;100595.41;5092818;28;20100;-74
2022/09/07 06:36:17;;;;;;;10.85;2.72;;;;;;;28.01;28.11;100592.72;5092559;28;20413;-74
2022/09/07 06:38:43;;;;;;;9.60;3.28;;;;;;;28.87;27.39;100577.59;5092565;28;20031;-75
2022/09/07 06:41:14;;;;;;;7.10;2.38;;;;;;;29.49;25.34;100574.22;5093739;28;20031;-73
2022/09/07 06:43:40;;;;;;;8.13;2.65;;;;;;;29.38;25.31;100577.81;5075439;28;20020;-75
2022/09/07 06:46:06;;;;;;;6.65;2.40;;;;;;;29.39;25.38;100574.22;5087914;28;20100;-74
2022/09/07 06:48:32;;;;;;;3.75;2.55;;;;;;;29.81;24.29;100572.97;5093319;28;20358;-73
2022/09/07 06:50:58;;;;;;;9.38;2.83;;;;;;;30.27;24.18;100570.50;5075508;28;20472;-75
2022/09/07 06:53:25;;;;;;;7.15;2.55;;;;;;;30.57;23.31;100578.59;5093593;28;20066;-75
2022/09/07 06:55:51;;;;;;;8.65;2.63;;;;;;;31.04;22.98;100570.09;5075458;28;20437;-75
2022/09/07 06:58:16;;;;;;;7.70;2.67;;;;;;;31.37;23.14;100565.00;5040948;28;20043;-75
2022/09/07 07:00:42;;;;;;;5.97;3.30;;;;;;;30.75;23.16;100560.66;5093356;28;20046;-75
2022/09/07 07:03:07;;;;;;;10.18;3.13;;;;;;;31.51;22.96;100564.41;5093368;28;20027;-75
2022/09/07 07:05:32;;;;;;;7.05;3.17;;;;;;;32.12;22.50;100560.38;5093291;28;20016;-75
2022/09/07 07:07:58;;;;;;;8.98;3.28;;;;;;;32.88;22.00;100561.53;5093424;28;20020;-75
2022/09/07 07:10:23;;;;;;;6.82;2.42;;;;;;;33.35;20.88;100564.41;5093311;28;20068;-75
2022/09/07 07:12:49;;;;;;;5.80;2.50;;;;;;;33.28;20.97;100554.38;5093373;28;20028;-74
2022/09/07 07:15:14;;;;;;;8.85;2.97;;;;;;;33.78;20.72;100538.81;5092968;28;20092;-76
2022/09/07 07:17:40;;;;;;;6.95;3.53;;;;;;;33.98;20.57;100535.47;5075107;28;20031;-76
2022/09/07 07:20:06;;;;;;;6.45;2.78;;;;;;;34.04;20.35;100542.50;5093467;28;20028;-78
2022/09/07 07:22:31;;;;;;;8.93;2.80;;;;;;;34.16;20.49;100528.41;5075578;28;20033;-76
2022/09/07 07:24:57;;;;;;;8.63;2.90;;;;;;;34.64;20.14;100530.31;5093297;28;20564;-74
2022/09/07 07:27:23;;;;;;;5.47;2.67;;;;;;;34.77;19.28;100535.47;5093210;28;20024;-74
2022/09/07 07:29:51;;;;;;;2.92;2.15;;;;;;;34.09;19.63;100528.66;5093163;28;20051;-75
2022/09/07 07:32:16;;;;;;;13.52;3.83;;;;;;;34.45;20.11;100524.03;5074754;28;20039;-78
2022/09/07 07:34:42;;;;;;;8.93;3.13;;;;;;;34.73;19.41;100531.50;5093017;28;20043;-78
2022/09/07 07:37:08;;;;;;;9.68;3.60;;;;;;;35.46;19.06;100533.13;5074900;28;20528;-76
2022/09/07 07:39:34;;;;;;;9.77;2.70;;;;;;;35.99;18.76;100533.56;5075099;28;20063;-78
2022/09/07 07:41:59;;;;;;;10.52;3.60;;;;;;;36.22;18.27;100522.75;5058290;28;20028;-78
2022/09/07 07:44:25;;;;;;;6.82;2.58;;;;;;;36.11;18.41;100533.41;5074234;28;20032;-79
2022/09/07 07:46:50;;;;;;;9.27;3.28;;;;;;;35.24;18.45;100537.19;5074469;28;20024;-76
2022/09/07 07:49:16;;;;;;;7.20;3.17;;;;;;;34.90;19.35;100530.94;5092921;28;20031;-78
2022/09/07 07:51:41;;;;;;;5.03;2.60;;;;;;;35.01;19.87;100523.31;5093090;28;20032;-74
2022/09/07 07:54:07;;;;;;;6.18;2.60;;;;;;;34.90;19.38;100519.06;5058021;28;20121;-76
2022/09/07 07:56:32;;;;;;;4.13;2.85;;;;;;;33.44;20.68;100513.84;5074994;28;20108;-76
2022/09/07 07:58:57;;;;;;;6.22;3.00;;;;;;;33.40;20.62;100516.56;5092731;28;20083;-78
2022/09/07 08:01:23;;;;;;;8.30;3.13;;;;;;;32.87;21.52;100526.66;5092849;28;20036;-77
2022/09/07 08:03:48;;;;;;;6.55;3.17;;;;;;;33.09;21.72;100513.19;5074843;28;20457;-76
2022/09/07 08:06:16;;;;;;;4.68;2.80;;;;;;;33.27;21.29;100510.59;5093022;28;20078;-76
2022/09/07 08:08:42;;;;;;;7.45;3.13;;;;;;;33.77;21.12;100521.69;5075674;28;20043;-76
2022/09/07 08:11:17;;;;;;;8.77;3.45;;;;;;;33.54;21.20;100519.59;5096859;28;20020;-78
2022/09/07 08:13:45;;;;;;;7.32;3.50;;;;;;;33.19;22.03;100533.78;5096156;28;20392;-76
2022/09/07 08:16:11;;;;;;;14.25;3.78;;;;;;;32.93;22.25;100535.94;5078353;28;20024;-76
2022/09/07 08:18:37;;;;;;;5.78;3.03;;;;;;;32.96;22.62;100531.66;5078361;28;20028;-75
2022/09/07 08:21:05;;;;;;;7.28;3.40;;;;;;;33.15;21.96;100542.41;5061680;28;20097;-77
2022/09/07 08:23:31;;;;;;;11.27;3.50;;;;;;;33.31;22.00;100537.50;5198177;22;20052;-79
2022/09/07 08:25:57;;;;;;;9.38;3.10;;;;;;;33.42;21.94;100530.75;5073721;28;20033;-77
2022/09/07 08:28:24;;;;;;;3.90;3.40;;;;;;;33.27;21.96;100529.13;5075843;28;20032;-79
2022/09/07 08:30:49;;;;;;;10.25;4.03;;;;;;;33.48;22.12;100522.19;5075842;28;20473;-79
2022/09/07 08:33:15;;;;;;;16.25;3.72;;;;;;;33.32;22.19;100527.19;5074687;28;20070;-79
2022/09/07 08:35:40;;;;;;;14.07;3.75;;;;;;;33.30;22.18;100518.16;5074725;28;20028;-78
2022/09/07 08:38:06;;;;;;;8.25;3.72;;;;;;;33.13;22.13;100524.53;5075937;28;20484;-78
2022/09/07 08:40:34;;;;;;;9.48;3.72;;;;;;;32.44;23.23;100517.31;5074718;28;20375;-79
2022/09/07 08:43:09;;;;;;;12.27;3.42;;;;;;;32.63;23.04;100517.81;5074595;28;20036;-80
2022/09/07 08:45:39;;;;;;;6.50;3.50;;;;;;;32.13;23.67;100511.63;5075268;28;20024;-77
2022/09/07 08:48:04;;;;;;;9.00;3.58;;;;;;;31.52;24.31;100504.69;5074957;28;20035;-78
2022/09/07 08:50:37;;;;;;;8.70;4.85;;;;;;;31.18;25.36;100493.53;5089599;28;20024;-79
2022/09/07 08:53:14;;;;;;;5.13;3.17;;;;;;;31.39;25.10;100514.16;5096079;28;20105;-77
2022/09/07 08:55:42;;;;;;;12.02;4.32;;;;;;;30.58;26.17;100502.63;5077805;28;20027;-78
2022/09/07 08:58:18;;;;;;;6.63;3.45;;;;;;;30.89;25.38;100497.47;5095089;28;20024;-80
2022/09/07 09:00:43;;;;;;;6.70;4.10;;;;;;;30.40;26.29;100493.28;5077971;28;20061;-78
2022/09/07 09:03:31;;;;;;;7.50;3.75;;;;;;;29.66;26.55;100504.16;5094581;28;20473;-77
2022/09/07 09:06:22;;;;;;;5.78;3.70;;;;;;;29.12;27.99;100494.13;5077538;28;20388;-78
2022/09/07 09:08:51;;;;;;;7.22;3.92;;;;;;;28.82;28.01;100498.44;5077840;28;20019;-79
2022/09/07 09:11:19;;;;;;;7.78;3.25;;;;;;;28.54;28.85;100499.19;5097538;28;20062;-80
2022/09/07 09:14:19;;;;;;;9.07;3.70;;;;;;;27.97;29.68;100501.28;5097337;28;20028;-75
2022/09/07 09:16:45;;;;;;;5.38;3.70;;;;;;;27.68;29.66;100508.38;5062191;28;20036;-76
2022/09/07 09:19:32;;;;;;;11.32;4.38;;;;;;;27.48;29.97;100511.22;5094557;28;20094;-78
2022/09/07 09:22:12;;;;;;;8.30;3.63;;;;;;;27.09;30.51;100513.06;5094716;28;20023;-77
2022/09/07 09:24:41;;;;;;;11.70;3.83;;;;;;;27.04;30.85;100504.53;5108042;28;20115;-76
2022/09/07 09:27:08;;;;;;;12.45;4.25;;;;;;;27.12;31.44;100508.13;5097615;28;20080;-76
2022/09/07 09:29:33;;;;;;;12.07;4.22;;;;;;;27.16;31.25;100503.38;5097134;28;20494;-75
2022/09/07 09:31:59;;;;;;;6.63;3.50;;;;;;;27.17;31.17;100507.09;5115419;28;20069;-76
2022/09/07 09:34:25;;;;;;;12.95;4.28;;;;;;;26.85;31.38;100504.38;5115329;28;20031;-77
2022/09/07 09:36:52;;;;;;;32.28;6.40;;;;;;;26.70;32.55;100502.34;5097081;28;20107;-77
2022/09/07 09:39:31;;;;;;;13.90;4.40;;;;;;;26.64;33.26;100499.66;5096787;28;20417;-78
2022/09/07 09:42:08;;;;;;;12.90;5.15;;;;;;;26.14;32.55;100487.25;5115282;28;20451;-76
2022/09/07 09:44:36;;;;;;;7.55;3.83;;;;;;;25.90;33.22;100471.22;5115569;28;20109;-77
2022/09/07 09:47:01;;;;;;;9.52;4.80;;;;;;;25.75;33.58;100465.47;5080381;28;20027;-75
2022/09/07 09:49:35;;;;;;;6.80;3.80;;;;;;;25.58;33.86;100458.78;5096641;28;20020;-75
2022/09/07 09:52:03;;;;;;;11.60;4.43;;;;;;;25.46;34.87;100467.19;5096901;28;20031;-76
2022/09/07 09:54:35;;;;;;;17.08;4.60;;;;;;;25.49;34.76;100463.09;5097290;28;20039;-77
2022/09/07 09:57:00;;;;;;;;;;;;;;;25.50;35.20;100461.75;5097475;28;20024;-76
2022/09/07 09:59:31;;;;;;;11.00;3.80;;;;;;;25.14;34.83;100459.19;5096619;28;19908;-78
2022/09/07 10:01:57;;;;;;;10.40;4.63;;;;;;;24.98;36.21;100451.88;5114811;28;20024;-77
2022/09/07 10:04:22;;;;;;;25.52;5.43;;;;;;;24.87;36.26;100444.31;5096467;28;20118;-77
2022/09/07 10:06:54;;;;;;;10.90;4.70;;;;;;;24.69;36.89;100447.66;5096367;28;20114;-76
2022/09/07 10:09:34;;;;;;;9.10;3.90;;;;;;;24.68;37.02;100441.03;5114906;28;20031;-77
2022/09/07 10:12:03;;;;;;;11.18;4.55;;;;;;;24.57;36.66;100444.38;5114724;28;20034;-76
2022/09/07 10:14:30;;;;;;;9.15;5.18;;;;;;;24.56;36.92;100437.75;5096797;28;20034;-76
2022/09/07 10:16:56;;;;;;;10.60;4.65;;;;;;;24.67;36.74;100435.78;5096386;28;20081;-78
2022/09/07 10:19:29;;;;;;;23.20;5.10;;;;;;;24.74;36.96;100438.66;5079490;28;20039;-76
2022/09/07 10:21:56;;;;;;;25.73;4.18;;;;;;;24.64;36.92;100443.59;5096223;28;20035;-74
2022/09/07 10:24:27;;;;;;;12.32;5.07;;;;;;;24.59;37.23;100451.16;5096297;28;20442;-77
2022/09/07 10:26:53;;;;;;;11.90;4.30;;;;;;;24.52;36.92;100446.16;5114514;28;20047;-78
2022/09/07 10:29:28;;;;;;;13.13;4.78;;;;;;;24.49;37.08;100440.72;5096290;28;20059;-77
2022/09/07 10:32:00;;;;;;;12.73;5.00;;;;;;;24.36;37.58;100441.69;5114154;28;20388;-77
2022/09/07 10:34:43;;;;;;;10.30;4.43;;;;;;;24.29;38.54;100439.59;5096246;28;20035;-76
2022/09/07 10:37:10;;;;;;;19.58;5.15;;;;;;;24.27;38.34;100432.75;5114340;28;20032;-76
2022/09/07 10:40:22;;;;;;;9.30;4.47;;;;;;;24.19;37.53;100421.84;5096067;28;20181;-75
2022/09/07 10:43:00;;;;;;;16.35;6.05;;;;;;;24.06;38.31;100436.66;5089127;28;20040;-76
2022/09/07 10:45:40;;;;;;;14.93;6.00;;;;;;;23.89;39.17;100426.94;5096119;28;20039;-75
2022/09/07 10:48:31;;;;;;;20.67;6.10;;;;;;;23.68;38.87;100439.56;5113910;28;20027;-76
2022/09/07 10:50:58;;;;;;;17.08;5.30;;;;;;;23.51;39.84;100421.03;5084216;28;20106;-77
2022/09/07 10:53:35;;;;;;;9.63;4.38;;;;;;;23.52;40.47;100419.69;5095789;28;20517;-75
2022/09/07 10:56:08;;;;;;;51.47;11.57;;;;;;;23.54;40.86;100419.88;5095648;28;20027;-77
2022/09/07 10:59:02;;;;;;;16.95;4.88;;;;;;;23.46;40.86;100416.19;5078816;28;20468;-77
2022/09/07 11:01:52;;;;;;;10.90;4.65;;;;;;;23.49;40.68;100420.84;5092521;28;20063;-75
2022/09/07 11:04:35;;;;;;;12.30;4.90;;;;;;;23.38;40.94;100416.94;5095954;28;20028;-76
2022/09/07 11:07:30;;;;;;;10.30;4.65;;;;;;;23.37;41.33;100400.78;5113555;28;20440;-77
2022/09/07 11:10:07;;;;;;;8.98;4.35;;;;;;;23.41;41.66;100406.25;5104232;28;20551;-76
2022/09/07 11:12:35;;;;;;;10.18;4.80;;;;;;;23.42;41.82;100404.09;5113920;28;20023;-77
2022/09/07 11:15:12;;;;;;;16.23;4.97;;;;;;;23.43;42.04;100399.84;5113696;28;20111;-75
2022/09/07 11:17:45;;;;;;;12.85;4.53;;;;;;;23.45;42.09;100403.75;5113337;28;20065;-75
2022/09/07 11:20:30;;;;;;;15.20;5.57;;;;;;;23.45;42.37;100400.81;5093461;28;20019;-76
2022/09/07 11:23:13;;;;;;;11.38;5.05;;;;;;;23.47;42.92;100398.09;5094689;28;20019;-76
2022/09/07 11:25:50;;;;;;;16.38;5.10;;;;;;;23.58;41.81;100399.88;5113724;28;20427;-76
2022/09/07 11:28:39;;;;;;;28.70;7.57;;;;;;;23.80;41.79;100396.94;5095580;28;20102;-76
2022/09/07 11:31:14;;;;;;;13.60;5.57;;;;;;;24.08;41.29;100389.34;5098690;28;20043;-78
2022/09/07 11:33:53;;;;;;;8.35;3.92;;;;;;;24.07;41.19;100387.78;5095113;28;20212;-77
2022/09/07 11:36:19;;;;;;;9.32;4.53;;;;;;;24.29;41.92;100374.53;5113772;28;20028;-76